sensor_id;sensor_type;location;lat;lon;timestamp;P1;durP1;ratioP1;P2;durP2;ratioP2
75746;SDS011;64363;52.198;21.020;2023-04-24T00:00:18;17.42;;;9.38;;
75746;SDS011;64363;52.198;21.020;2023-04-24T00:03:04;18.95;;;9.48;;
75746;SDS011;64363;52.198;21.020;2023-04-24T00:05:31;15.35;;;9.35;;
75746;SDS011;64363;52.198;21.020;2023-04-24T00:07:58;17.67;;;9.40;;
75746;SDS011;64363;52.198;21.020;2023-04-24T00:10:23;14.32;;;9.10;;
75746;SDS011;64363;52.198;21.020;2023-04-24T00:12:49;20.75;;;10.02;;
75746;SDS011;64363;52.198;21.020;2023-04-24T00:15:15;16.40;;;9.07;;
75746;SDS011;64363;52.198;21.020;2023-04-24T00:17:40;15.65;;;8.70;;
75746;SDS011;64363;52.198;21.020;2023-04-24T00:20:06;14.63;;;8.85;;
75746;SDS011;64363;52.198;21.020;2023-04-24T00:22:33;16.00;;;8.98;;
75746;SDS011;64363;52.198;21.020;2023-04-24T00:24:58;19.05;;;10.10;;
75746;SDS011;64363;52.198;21.020;2023-04-24T00:27:24;15.15;;;9.38;;
75746;SDS011;64363;52.198;21.020;2023-04-24T00:29:50;16.63;;;10.30;;
75746;SDS011;64363;52.198;21.020;2023-04-24T00:32:16;16.30;;;9.13;;
75746;SDS011;64363;52.198;21.020;2023-04-24T00:34:42;14.18;;;9.57;;
75746;SDS011;64363;52.198;21.020;2023-04-24T00:37:08;16.08;;;9.02;;
75746;SDS011;64363;52.198;21.020;2023-04-24T00:39:34;18.30;;;8.95;;
75746;SDS011;64363;52.198;21.020;2023-04-24T00:42:00;14.90;;;8.88;;
75746;SDS011;64363;52.198;21.020;2023-04-24T00:44:26;14.20;;;9.23;;
75746;SDS011;64363;52.198;21.020;2023-04-24T00:46:53;19.17;;;9.63;;
75746;SDS011;64363;52.198;21.020;2023-04-24T00:49:23;17.13;;;9.02;;
75746;SDS011;64363;52.198;21.020;2023-04-24T00:51:49;15.82;;;8.45;;
75746;SDS011;64363;52.198;21.020;2023-04-24T00:54:16;15.45;;;9.88;;
75746;SDS011;64363;52.198;21.020;2023-04-24T00:56:43;18.15;;;10.23;;
75746;SDS011;64363;52.198;21.020;2023-04-24T00:59:10;17.33;;;9.85;;
75746;SDS011;64363;52.198;21.020;2023-04-24T01:01:37;15.98;;;9.05;;
75746;SDS011;64363;52.198;21.020;2023-04-24T01:04:07;15.02;;;9.60;;
75746;SDS011;64363;52.198;21.020;2023-04-24T01:06:35;16.27;;;9.48;;
75746;SDS011;64363;52.198;21.020;2023-04-24T01:09:04;15.95;;;9.25;;
75746;SDS011;64363;52.198;21.020;2023-04-24T01:11:30;13.25;;;8.85;;
75746;SDS011;64363;52.198;21.020;2023-04-24T01:13:56;19.58;;;9.45;;
75746;SDS011;64363;52.198;21.020;2023-04-24T01:16:22;16.27;;;10.55;;
75746;SDS011;64363;52.198;21.020;2023-04-24T01:18:48;17.40;;;10.05;;
75746;SDS011;64363;52.198;21.020;2023-04-24T01:21:15;16.77;;;9.98;;
75746;SDS011;64363;52.198;21.020;2023-04-24T01:23:45;16.02;;;9.60;;
75746;SDS011;64363;52.198;21.020;2023-04-24T01:26:12;18.88;;;9.90;;
75746;SDS011;64363;52.198;21.020;2023-04-24T01:28:38;17.88;;;10.32;;
75746;SDS011;64363;52.198;21.020;2023-04-24T01:31:05;20.92;;;9.77;;
75746;SDS011;64363;52.198;21.020;2023-04-24T01:33:30;14.73;;;9.75;;
75746;SDS011;64363;52.198;21.020;2023-04-24T01:35:57;23.42;;;9.95;;
75746;SDS011;64363;52.198;21.020;2023-04-24T01:38:22;22.10;;;9.70;;
75746;SDS011;64363;52.198;21.020;2023-04-24T01:40:49;16.23;;;10.00;;
75746;SDS011;64363;52.198;21.020;2023-04-24T01:43:15;20.80;;;10.70;;
75746;SDS011;64363;52.198;21.020;2023-04-24T01:45:41;14.27;;;9.50;;
75746;SDS011;64363;52.198;21.020;2023-04-24T01:48:06;17.27;;;10.20;;
75746;SDS011;64363;52.198;21.020;2023-04-24T01:50:32;22.45;;;11.18;;
75746;SDS011;64363;52.198;21.020;2023-04-24T01:52:58;15.85;;;10.40;;
75746;SDS011;64363;52.198;21.020;2023-04-24T01:55:24;17.92;;;10.88;;
75746;SDS011;64363;52.198;21.020;2023-04-24T01:57:49;14.88;;;9.82;;
75746;SDS011;64363;52.198;21.020;2023-04-24T02:00:17;14.02;;;9.32;;
75746;SDS011;64363;52.198;21.020;2023-04-24T02:02:43;17.25;;;10.60;;
75746;SDS011;64363;52.198;21.020;2023-04-24T02:05:09;17.15;;;9.85;;
75746;SDS011;64363;52.198;21.020;2023-04-24T02:07:36;16.65;;;10.10;;
75746;SDS011;64363;52.198;21.020;2023-04-24T02:10:02;21.30;;;11.00;;
75746;SDS011;64363;52.198;21.020;2023-04-24T02:12:29;17.52;;;10.63;;
75746;SDS011;64363;52.198;21.020;2023-04-24T02:14:55;18.63;;;12.07;;
75746;SDS011;64363;52.198;21.020;2023-04-24T02:17:21;19.83;;;11.63;;
75746;SDS011;64363;52.198;21.020;2023-04-24T02:19:47;18.13;;;10.05;;
75746;SDS011;64363;52.198;21.020;2023-04-24T02:22:12;19.20;;;10.70;;
75746;SDS011;64363;52.198;21.020;2023-04-24T02:24:38;14.82;;;10.75;;
75746;SDS011;64363;52.198;21.020;2023-04-24T02:27:04;15.32;;;10.43;;
75746;SDS011;64363;52.198;21.020;2023-04-24T02:29:30;17.33;;;11.27;;
75746;SDS011;64363;52.198;21.020;2023-04-24T02:31:56;18.20;;;11.77;;
75746;SDS011;64363;52.198;21.020;2023-04-24T02:34:22;21.85;;;10.93;;
75746;SDS011;64363;52.198;21.020;2023-04-24T02:36:48;21.10;;;11.10;;
75746;SDS011;64363;52.198;21.020;2023-04-24T02:39:14;18.67;;;10.88;;
75746;SDS011;64363;52.198;21.020;2023-04-24T02:41:42;17.02;;;10.80;;
75746;SDS011;64363;52.198;21.020;2023-04-24T02:44:08;19.50;;;10.75;;
75746;SDS011;64363;52.198;21.020;2023-04-24T02:46:34;18.38;;;10.82;;
75746;SDS011;64363;52.198;21.020;2023-04-24T02:49:00;23.67;;;10.82;;
75746;SDS011;64363;52.198;21.020;2023-04-24T02:51:25;18.17;;;10.80;;
75746;SDS011;64363;52.198;21.020;2023-04-24T02:53:52;18.83;;;10.38;;
75746;SDS011;64363;52.198;21.020;2023-04-24T02:56:18;18.75;;;11.05;;
75746;SDS011;64363;52.198;21.020;2023-04-24T02:58:44;19.35;;;10.88;;
75746;SDS011;64363;52.198;21.020;2023-04-24T03:01:09;14.95;;;10.32;;
75746;SDS011;64363;52.198;21.020;2023-04-24T03:03:36;18.75;;;10.05;;
75746;SDS011;64363;52.198;21.020;2023-04-24T03:06:02;15.80;;;10.70;;
75746;SDS011;64363;52.198;21.020;2023-04-24T03:08:28;19.15;;;11.38;;
75746;SDS011;64363;52.198;21.020;2023-04-24T03:10:53;19.75;;;11.15;;
75746;SDS011;64363;52.198;21.020;2023-04-24T03:13:19;18.88;;;9.95;;
75746;SDS011;64363;52.198;21.020;2023-04-24T03:15:45;17.88;;;10.85;;
75746;SDS011;64363;52.198;21.020;2023-04-24T03:18:12;18.02;;;11.48;;
75746;SDS011;64363;52.198;21.020;2023-04-24T03:20:37;19.58;;;11.52;;
75746;SDS011;64363;52.198;21.020;2023-04-24T03:23:03;19.38;;;11.30;;
75746;SDS011;64363;52.198;21.020;2023-04-24T03:25:29;21.83;;;11.50;;
75746;SDS011;64363;52.198;21.020;2023-04-24T03:27:55;17.52;;;11.00;;
75746;SDS011;64363;52.198;21.020;2023-04-24T03:30:20;19.20;;;11.75;;
75746;SDS011;64363;52.198;21.020;2023-04-24T03:32:46;21.95;;;11.65;;
75746;SDS011;64363;52.198;21.020;2023-04-24T03:35:12;16.08;;;10.32;;
75746;SDS011;64363;52.198;21.020;2023-04-24T03:37:37;19.58;;;12.38;;
75746;SDS011;64363;52.198;21.020;2023-04-24T03:40:03;22.25;;;11.88;;
75746;SDS011;64363;52.198;21.020;2023-04-24T03:42:31;18.08;;;10.95;;
75746;SDS011;64363;52.198;21.020;2023-04-24T03:44:56;17.50;;;10.85;;
75746;SDS011;64363;52.198;21.020;2023-04-24T03:47:22;17.10;;;9.32;;
75746;SDS011;64363;52.198;21.020;2023-04-24T03:49:48;16.48;;;11.02;;
75746;SDS011;64363;52.198;21.020;2023-04-24T03:52:14;21.88;;;11.45;;
75746;SDS011;64363;52.198;21.020;2023-04-24T03:54:39;25.40;;;11.73;;
75746;SDS011;64363;52.198;21.020;2023-04-24T03:57:05;21.52;;;11.25;;
75746;SDS011;64363;52.198;21.020;2023-04-24T03:59:31;20.38;;;11.00;;
75746;SDS011;64363;52.198;21.020;2023-04-24T04:01:56;23.50;;;11.70;;
75746;SDS011;64363;52.198;21.020;2023-04-24T04:04:22;21.23;;;12.32;;
75746;SDS011;64363;52.198;21.020;2023-04-24T04:06:48;18.77;;;11.90;;
75746;SDS011;64363;52.198;21.020;2023-04-24T04:09:14;18.90;;;11.45;;
75746;SDS011;64363;52.198;21.020;2023-04-24T04:11:40;20.63;;;11.73;;
75746;SDS011;64363;52.198;21.020;2023-04-24T04:14:05;17.92;;;11.10;;
75746;SDS011;64363;52.198;21.020;2023-04-24T04:16:31;23.15;;;12.02;;
75746;SDS011;64363;52.198;21.020;2023-04-24T04:18:57;21.05;;;11.38;;
75746;SDS011;64363;52.198;21.020;2023-04-24T04:21:24;21.00;;;11.65;;
75746;SDS011;64363;52.198;21.020;2023-04-24T04:23:49;18.52;;;11.25;;
75746;SDS011;64363;52.198;21.020;2023-04-24T04:26:15;17.75;;;11.45;;
75746;SDS011;64363;52.198;21.020;2023-04-24T04:28:41;21.42;;;11.25;;
75746;SDS011;64363;52.198;21.020;2023-04-24T04:31:07;18.13;;;10.80;;
75746;SDS011;64363;52.198;21.020;2023-04-24T04:33:33;21.67;;;11.32;;
75746;SDS011;64363;52.198;21.020;2023-04-24T04:35:59;17.95;;;11.45;;
75746;SDS011;64363;52.198;21.020;2023-04-24T04:38:25;19.10;;;11.75;;
75746;SDS011;64363;52.198;21.020;2023-04-24T04:40:55;19.95;;;11.63;;
75746;SDS011;64363;52.198;21.020;2023-04-24T04:43:24;19.45;;;12.30;;
75746;SDS011;64363;52.198;21.020;2023-04-24T04:45:50;18.48;;;11.40;;
75746;SDS011;64363;52.198;21.020;2023-04-24T04:48:20;19.58;;;11.60;;
75746;SDS011;64363;52.198;21.020;2023-04-24T04:50:45;19.02;;;11.68;;
75746;SDS011;64363;52.198;21.020;2023-04-24T04:53:11;14.73;;;10.82;;
75746;SDS011;64363;52.198;21.020;2023-04-24T04:55:37;17.10;;;10.98;;
75746;SDS011;64363;52.198;21.020;2023-04-24T04:58:02;19.75;;;10.90;;
75746;SDS011;64363;52.198;21.020;2023-04-24T05:00:28;17.45;;;11.63;;
75746;SDS011;64363;52.198;21.020;2023-04-24T05:02:59;18.70;;;11.68;;
75746;SDS011;64363;52.198;21.020;2023-04-24T05:05:25;21.13;;;11.07;;
75746;SDS011;64363;52.198;21.020;2023-04-24T05:07:50;19.15;;;11.23;;
75746;SDS011;64363;52.198;21.020;2023-04-24T05:10:16;18.83;;;11.48;;
75746;SDS011;64363;52.198;21.020;2023-04-24T05:12:42;20.38;;;12.27;;
75746;SDS011;64363;52.198;21.020;2023-04-24T05:15:08;18.38;;;11.50;;
75746;SDS011;64363;52.198;21.020;2023-04-24T05:17:33;17.40;;;10.80;;
75746;SDS011;64363;52.198;21.020;2023-04-24T05:19:59;17.58;;;11.18;;
75746;SDS011;64363;52.198;21.020;2023-04-24T05:22:25;19.35;;;10.85;;
75746;SDS011;64363;52.198;21.020;2023-04-24T05:24:51;17.67;;;10.80;;
75746;SDS011;64363;52.198;21.020;2023-04-24T05:27:17;18.80;;;11.15;;
75746;SDS011;64363;52.198;21.020;2023-04-24T05:29:43;19.88;;;12.88;;
75746;SDS011;64363;52.198;21.020;2023-04-24T05:32:08;23.00;;;11.95;;
75746;SDS011;64363;52.198;21.020;2023-04-24T05:34:34;22.52;;;12.02;;
75746;SDS011;64363;52.198;21.020;2023-04-24T05:37:00;17.45;;;11.25;;
75746;SDS011;64363;52.198;21.020;2023-04-24T05:39:26;17.30;;;10.65;;
75746;SDS011;64363;52.198;21.020;2023-04-24T05:41:52;17.92;;;10.93;;
75746;SDS011;64363;52.198;21.020;2023-04-24T05:44:18;16.77;;;10.02;;
75746;SDS011;64363;52.198;21.020;2023-04-24T05:46:43;17.80;;;11.27;;
75746;SDS011;64363;52.198;21.020;2023-04-24T05:49:09;19.27;;;11.43;;
75746;SDS011;64363;52.198;21.020;2023-04-24T05:51:35;19.92;;;11.52;;
75746;SDS011;64363;52.198;21.020;2023-04-24T05:54:00;20.38;;;12.13;;
75746;SDS011;64363;52.198;21.020;2023-04-24T05:56:28;28.83;;;12.82;;
75746;SDS011;64363;52.198;21.020;2023-04-24T05:58:54;20.52;;;10.93;;
75746;SDS011;64363;52.198;21.020;2023-04-24T06:01:20;15.73;;;11.05;;
75746;SDS011;64363;52.198;21.020;2023-04-24T06:03:46;19.52;;;11.13;;
75746;SDS011;64363;52.198;21.020;2023-04-24T06:06:11;20.45;;;11.95;;
75746;SDS011;64363;52.198;21.020;2023-04-24T06:08:37;19.85;;;11.48;;
75746;SDS011;64363;52.198;21.020;2023-04-24T06:11:03;22.25;;;12.13;;
75746;SDS011;64363;52.198;21.020;2023-04-24T06:13:29;20.20;;;12.00;;
75746;SDS011;64363;52.198;21.020;2023-04-24T06:15:54;19.63;;;11.10;;
75746;SDS011;64363;52.198;21.020;2023-04-24T06:18:20;19.38;;;11.65;;
75746;SDS011;64363;52.198;21.020;2023-04-24T06:20:46;18.35;;;12.05;;
75746;SDS011;64363;52.198;21.020;2023-04-24T06:23:12;23.55;;;12.02;;
75746;SDS011;64363;52.198;21.020;2023-04-24T06:25:38;19.05;;;11.15;;
75746;SDS011;64363;52.198;21.020;2023-04-24T06:28:04;21.08;;;11.73;;
75746;SDS011;64363;52.198;21.020;2023-04-24T06:30:30;20.15;;;11.40;;
75746;SDS011;64363;52.198;21.020;2023-04-24T06:32:56;18.17;;;10.43;;
75746;SDS011;64363;52.198;21.020;2023-04-24T06:35:21;19.02;;;11.23;;
75746;SDS011;64363;52.198;21.020;2023-04-24T06:37:47;18.42;;;11.38;;
75746;SDS011;64363;52.198;21.020;2023-04-24T06:40:13;18.92;;;11.48;;
75746;SDS011;64363;52.198;21.020;2023-04-24T06:42:38;21.80;;;11.68;;
75746;SDS011;64363;52.198;21.020;2023-04-24T06:45:04;19.38;;;11.50;;
75746;SDS011;64363;52.198;21.020;2023-04-24T06:47:31;20.30;;;11.45;;
75746;SDS011;64363;52.198;21.020;2023-04-24T06:49:57;21.85;;;11.75;;
75746;SDS011;64363;52.198;21.020;2023-04-24T06:52:23;20.92;;;11.98;;
75746;SDS011;64363;52.198;21.020;2023-04-24T06:54:48;16.38;;;10.02;;
75746;SDS011;64363;52.198;21.020;2023-04-24T06:57:14;20.75;;;11.88;;
75746;SDS011;64363;52.198;21.020;2023-04-24T06:59:41;23.40;;;12.15;;
75746;SDS011;64363;52.198;21.020;2023-04-24T07:02:07;19.98;;;11.65;;
75746;SDS011;64363;52.198;21.020;2023-04-24T07:04:33;20.05;;;11.70;;
75746;SDS011;64363;52.198;21.020;2023-04-24T07:06:59;16.80;;;10.40;;
75746;SDS011;64363;52.198;21.020;2023-04-24T07:09:25;20.63;;;11.57;;
75746;SDS011;64363;52.198;21.020;2023-04-24T07:11:51;15.13;;;11.52;;
75746;SDS011;64363;52.198;21.020;2023-04-24T07:14:18;16.30;;;9.95;;
75746;SDS011;64363;52.198;21.020;2023-04-24T07:16:43;17.05;;;10.40;;
75746;SDS011;64363;52.198;21.020;2023-04-24T07:19:10;24.25;;;11.55;;
75746;SDS011;64363;52.198;21.020;2023-04-24T07:21:36;18.13;;;12.13;;
75746;SDS011;64363;52.198;21.020;2023-04-24T07:24:02;15.05;;;10.70;;
75746;SDS011;64363;52.198;21.020;2023-04-24T07:26:30;22.35;;;11.88;;
75746;SDS011;64363;52.198;21.020;2023-04-24T07:31:22;20.67;;;12.80;;
75746;SDS011;64363;52.198;21.020;2023-04-24T07:33:48;21.83;;;13.23;;
75746;SDS011;64363;52.198;21.020;2023-04-24T07:36:14;20.60;;;12.32;;
75746;SDS011;64363;52.198;21.020;2023-04-24T07:38:44;18.02;;;13.07;;
75746;SDS011;64363;52.198;21.020;2023-04-24T07:41:11;27.15;;;12.98;;
75746;SDS011;64363;52.198;21.020;2023-04-24T07:43:40;18.85;;;12.25;;
75746;SDS011;64363;52.198;21.020;2023-04-24T07:46:06;16.17;;;11.75;;
75746;SDS011;64363;52.198;21.020;2023-04-24T07:48:32;17.95;;;11.27;;
75746;SDS011;64363;52.198;21.020;2023-04-24T07:50:58;17.90;;;12.18;;
75746;SDS011;64363;52.198;21.020;2023-04-24T07:53:24;17.20;;;11.02;;
75746;SDS011;64363;52.198;21.020;2023-04-24T07:55:50;16.63;;;10.85;;
75746;SDS011;64363;52.198;21.020;2023-04-24T07:58:15;18.88;;;11.80;;
75746;SDS011;64363;52.198;21.020;2023-04-24T08:00:41;17.25;;;9.70;;
75746;SDS011;64363;52.198;21.020;2023-04-24T08:03:07;16.23;;;10.82;;
75746;SDS011;64363;52.198;21.020;2023-04-24T08:05:33;17.35;;;11.07;;
75746;SDS011;64363;52.198;21.020;2023-04-24T08:07:59;16.67;;;10.88;;
75746;SDS011;64363;52.198;21.020;2023-04-24T08:10:24;13.93;;;9.73;;
75746;SDS011;64363;52.198;21.020;2023-04-24T08:12:52;15.07;;;10.80;;
75746;SDS011;64363;52.198;21.020;2023-04-24T08:15:17;18.23;;;11.38;;
75746;SDS011;64363;52.198;21.020;2023-04-24T08:17:43;19.88;;;12.05;;
75746;SDS011;64363;52.198;21.020;2023-04-24T08:20:10;18.55;;;11.32;;
75746;SDS011;64363;52.198;21.020;2023-04-24T08:22:39;16.83;;;10.90;;
75746;SDS011;64363;52.198;21.020;2023-04-24T08:25:05;14.93;;;10.52;;
75746;SDS011;64363;52.198;21.020;2023-04-24T08:27:32;16.08;;;10.68;;
75746;SDS011;64363;52.198;21.020;2023-04-24T08:29:57;17.80;;;10.95;;
75746;SDS011;64363;52.198;21.020;2023-04-24T08:32:26;17.42;;;10.82;;
75746;SDS011;64363;52.198;21.020;2023-04-24T08:34:55;15.75;;;10.20;;
75746;SDS011;64363;52.198;21.020;2023-04-24T08:37:22;17.70;;;10.32;;
75746;SDS011;64363;52.198;21.020;2023-04-24T08:39:48;14.40;;;9.80;;
75746;SDS011;64363;52.198;21.020;2023-04-24T08:42:15;14.43;;;9.90;;
75746;SDS011;64363;52.198;21.020;2023-04-24T08:44:42;17.92;;;10.13;;
75746;SDS011;64363;52.198;21.020;2023-04-24T08:47:09;19.45;;;11.63;;
75746;SDS011;64363;52.198;21.020;2023-04-24T08:49:36;19.02;;;10.25;;
75746;SDS011;64363;52.198;21.020;2023-04-24T08:52:03;13.77;;;9.88;;
75746;SDS011;64363;52.198;21.020;2023-04-24T08:54:31;14.02;;;10.50;;
75746;SDS011;64363;52.198;21.020;2023-04-24T08:56:59;14.27;;;8.95;;
75746;SDS011;64363;52.198;21.020;2023-04-24T08:59:32;20.38;;;10.52;;
75746;SDS011;64363;52.198;21.020;2023-04-24T09:01:59;16.90;;;10.68;;
75746;SDS011;64363;52.198;21.020;2023-04-24T09:04:25;14.73;;;8.70;;
75746;SDS011;64363;52.198;21.020;2023-04-24T09:06:54;17.27;;;9.60;;
75746;SDS011;64363;52.198;21.020;2023-04-24T09:09:21;16.70;;;10.55;;
75746;SDS011;64363;52.198;21.020;2023-04-24T09:11:48;18.38;;;10.55;;
75746;SDS011;64363;52.198;21.020;2023-04-24T09:14:15;18.58;;;10.93;;
75746;SDS011;64363;52.198;21.020;2023-04-24T09:16:42;16.10;;;9.63;;
75746;SDS011;64363;52.198;21.020;2023-04-24T09:19:08;15.60;;;9.40;;
75746;SDS011;64363;52.198;21.020;2023-04-24T09:21:33;18.48;;;10.38;;
75746;SDS011;64363;52.198;21.020;2023-04-24T09:24:04;16.90;;;9.98;;
75746;SDS011;64363;52.198;21.020;2023-04-24T09:26:33;19.45;;;11.30;;
75746;SDS011;64363;52.198;21.020;2023-04-24T09:29:01;14.65;;;10.73;;
75746;SDS011;64363;52.198;21.020;2023-04-24T09:31:28;14.93;;;10.27;;
75746;SDS011;64363;52.198;21.020;2023-04-24T09:33:55;14.75;;;10.40;;
75746;SDS011;64363;52.198;21.020;2023-04-24T09:36:29;15.25;;;9.43;;
75746;SDS011;64363;52.198;21.020;2023-04-24T09:38:59;12.32;;;9.20;;
75746;SDS011;64363;52.198;21.020;2023-04-24T09:41:26;11.02;;;8.90;;
75746;SDS011;64363;52.198;21.020;2023-04-24T09:43:53;16.00;;;9.20;;
75746;SDS011;64363;52.198;21.020;2023-04-24T09:46:29;15.13;;;9.38;;
75746;SDS011;64363;52.198;21.020;2023-04-24T09:48:57;12.13;;;7.00;;
75746;SDS011;64363;52.198;21.020;2023-04-24T09:51:35;12.35;;;8.20;;
75746;SDS011;64363;52.198;21.020;2023-04-24T09:54:10;11.82;;;7.63;;
75746;SDS011;64363;52.198;21.020;2023-04-24T09:59:07;10.30;;;7.10;;
75746;SDS011;64363;52.198;21.020;2023-04-24T10:01:33;13.00;;;7.55;;
75746;SDS011;64363;52.198;21.020;2023-04-24T10:03:59;10.55;;;7.55;;
75746;SDS011;64363;52.198;21.020;2023-04-24T10:06:34;10.27;;;6.68;;
75746;SDS011;64363;52.198;21.020;2023-04-24T10:09:01;14.55;;;7.43;;
75746;SDS011;64363;52.198;21.020;2023-04-24T10:11:27;13.95;;;8.55;;
75746;SDS011;64363;52.198;21.020;2023-04-24T10:13:53;18.90;;;10.65;;
75746;SDS011;64363;52.198;21.020;2023-04-24T10:16:20;15.88;;;10.40;;
75746;SDS011;64363;52.198;21.020;2023-04-24T10:18:48;19.33;;;9.77;;
75746;SDS011;64363;52.198;21.020;2023-04-24T10:21:17;15.30;;;9.23;;
75746;SDS011;64363;52.198;21.020;2023-04-24T10:23:43;18.90;;;11.35;;
75746;SDS011;64363;52.198;21.020;2023-04-24T10:26:09;10.88;;;8.65;;
75746;SDS011;64363;52.198;21.020;2023-04-24T10:28:35;16.08;;;9.13;;
75746;SDS011;64363;52.198;21.020;2023-04-24T10:31:01;12.93;;;9.60;;
75746;SDS011;64363;52.198;21.020;2023-04-24T10:33:29;19.02;;;9.93;;
75746;SDS011;64363;52.198;21.020;2023-04-24T10:35:55;13.45;;;9.80;;
75746;SDS011;64363;52.198;21.020;2023-04-24T10:38:24;14.23;;;9.13;;
75746;SDS011;64363;52.198;21.020;2023-04-24T10:41:09;12.98;;;8.63;;
75746;SDS011;64363;52.198;21.020;2023-04-24T10:43:39;12.18;;;8.70;;
75746;SDS011;64363;52.198;21.020;2023-04-24T10:46:05;10.35;;;8.15;;
75746;SDS011;64363;52.198;21.020;2023-04-24T10:48:32;11.77;;;8.90;;
75746;SDS011;64363;52.198;21.020;2023-04-24T10:50:59;18.38;;;8.75;;
75746;SDS011;64363;52.198;21.020;2023-04-24T10:53:29;9.52;;;7.22;;
75746;SDS011;64363;52.198;21.020;2023-04-24T10:58:51;13.00;;;9.23;;
75746;SDS011;64363;52.198;21.020;2023-04-24T11:01:25;11.10;;;9.05;;
75746;SDS011;64363;52.198;21.020;2023-04-24T11:03:59;14.40;;;9.32;;
75746;SDS011;64363;52.198;21.020;2023-04-24T11:09:03;10.88;;;8.88;;
75746;SDS011;64363;52.198;21.020;2023-04-24T11:11:31;12.07;;;8.60;;
75746;SDS011;64363;52.198;21.020;2023-04-24T11:19:00;11.73;;;9.05;;
75746;SDS011;64363;52.198;21.020;2023-04-24T11:35:05;15.20;;;8.23;;
75746;SDS011;64363;52.198;21.020;2023-04-24T11:37:51;10.70;;;8.07;;
75746;SDS011;64363;52.198;21.020;2023-04-24T11:40:19;10.32;;;7.38;;
75746;SDS011;64363;52.198;21.020;2023-04-24T11:42:49;11.80;;;8.10;;
75746;SDS011;64363;52.198;21.020;2023-04-24T11:45:17;10.90;;;7.55;;
75746;SDS011;64363;52.198;21.020;2023-04-24T11:47:43;10.75;;;7.63;;
75746;SDS011;64363;52.198;21.020;2023-04-24T11:50:14;8.15;;;6.18;;
75746;SDS011;64363;52.198;21.020;2023-04-24T11:52:42;11.38;;;6.80;;
75746;SDS011;64363;52.198;21.020;2023-04-24T11:57:47;10.60;;;7.97;;
75746;SDS011;64363;52.198;21.020;2023-04-24T12:00:19;13.95;;;8.88;;
75746;SDS011;64363;52.198;21.020;2023-04-24T12:02:59;11.27;;;8.15;;
75746;SDS011;64363;52.198;21.020;2023-04-24T12:05:37;10.27;;;7.70;;
75746;SDS011;64363;52.198;21.020;2023-04-24T12:08:04;11.07;;;7.40;;
75746;SDS011;64363;52.198;21.020;2023-04-24T12:10:31;13.43;;;8.18;;
75746;SDS011;64363;52.198;21.020;2023-04-24T12:12:58;13.48;;;8.57;;
75746;SDS011;64363;52.198;21.020;2023-04-24T12:15:25;9.38;;;7.28;;
75746;SDS011;64363;52.198;21.020;2023-04-24T12:17:52;15.27;;;7.68;;
75746;SDS011;64363;52.198;21.020;2023-04-24T12:22:56;12.43;;;7.82;;
75746;SDS011;64363;52.198;21.020;2023-04-24T12:25:24;13.05;;;8.40;;
75746;SDS011;64363;52.198;21.020;2023-04-24T12:30:30;12.70;;;8.15;;
75746;SDS011;64363;52.198;21.020;2023-04-24T12:32:57;12.30;;;7.82;;
75746;SDS011;64363;52.198;21.020;2023-04-24T12:35:25;11.95;;;7.95;;
75746;SDS011;64363;52.198;21.020;2023-04-24T12:37:53;11.25;;;7.10;;
75746;SDS011;64363;52.198;21.020;2023-04-24T12:40:19;10.43;;;8.07;;
75746;SDS011;64363;52.198;21.020;2023-04-24T12:42:49;11.02;;;7.72;;
75746;SDS011;64363;52.198;21.020;2023-04-24T12:45:17;12.52;;;7.18;;
75746;SDS011;64363;52.198;21.020;2023-04-24T12:47:44;24.20;;;7.90;;
75746;SDS011;64363;52.198;21.020;2023-04-24T12:50:12;24.50;;;8.23;;
75746;SDS011;64363;52.198;21.020;2023-04-24T12:52:40;27.25;;;6.63;;
75746;SDS011;64363;52.198;21.020;2023-04-24T12:55:06;19.15;;;5.57;;
75746;SDS011;64363;52.198;21.020;2023-04-24T12:57:37;17.67;;;5.85;;
75746;SDS011;64363;52.198;21.020;2023-04-24T13:00:04;23.00;;;6.03;;
75746;SDS011;64363;52.198;21.020;2023-04-24T13:02:31;12.20;;;6.35;;
75746;SDS011;64363;52.198;21.020;2023-04-24T13:04:58;16.52;;;5.60;;
75746;SDS011;64363;52.198;21.020;2023-04-24T13:07:25;18.65;;;6.70;;
75746;SDS011;64363;52.198;21.020;2023-04-24T13:12:19;10.55;;;5.43;;
75746;SDS011;64363;52.198;21.020;2023-04-24T13:14:45;7.70;;;5.38;;
75746;SDS011;64363;52.198;21.020;2023-04-24T13:17:11;9.88;;;5.47;;
75746;SDS011;64363;52.198;21.020;2023-04-24T13:19:39;8.80;;;5.10;;
75746;SDS011;64363;52.198;21.020;2023-04-24T13:22:06;8.65;;;4.65;;
75746;SDS011;64363;52.198;21.020;2023-04-24T13:24:34;8.43;;;4.93;;
75746;SDS011;64363;52.198;21.020;2023-04-24T13:26:59;10.75;;;5.82;;
75746;SDS011;64363;52.198;21.020;2023-04-24T13:29:26;13.23;;;5.53;;
75746;SDS011;64363;52.198;21.020;2023-04-24T13:31:52;10.73;;;5.35;;
75746;SDS011;64363;52.198;21.020;2023-04-24T13:34:25;7.43;;;5.00;;
75746;SDS011;64363;52.198;21.020;2023-04-24T13:36:54;9.30;;;5.70;;
75746;SDS011;64363;52.198;21.020;2023-04-24T13:39:22;8.63;;;6.35;;
75746;SDS011;64363;52.198;21.020;2023-04-24T13:41:48;8.07;;;5.72;;
75746;SDS011;64363;52.198;21.020;2023-04-24T13:44:15;9.18;;;5.88;;
75746;SDS011;64363;52.198;21.020;2023-04-24T13:46:42;11.88;;;5.93;;
75746;SDS011;64363;52.198;21.020;2023-04-24T13:51:35;10.52;;;5.93;;
75746;SDS011;64363;52.198;21.020;2023-04-24T13:54:01;7.28;;;5.22;;
75746;SDS011;64363;52.198;21.020;2023-04-24T13:56:27;9.15;;;5.20;;
75746;SDS011;64363;52.198;21.020;2023-04-24T13:58:53;6.82;;;5.05;;
75746;SDS011;64363;52.198;21.020;2023-04-24T14:01:21;6.40;;;4.95;;
75746;SDS011;64363;52.198;21.020;2023-04-24T14:03:53;6.18;;;4.72;;
75746;SDS011;64363;52.198;21.020;2023-04-24T14:06:20;6.97;;;4.95;;
75746;SDS011;64363;52.198;21.020;2023-04-24T14:08:47;6.70;;;5.22;;
75746;SDS011;64363;52.198;21.020;2023-04-24T14:11:13;6.13;;;4.88;;
75746;SDS011;64363;52.198;21.020;2023-04-24T14:13:42;10.63;;;5.45;;
75746;SDS011;64363;52.198;21.020;2023-04-24T14:16:08;9.68;;;5.38;;
75746;SDS011;64363;52.198;21.020;2023-04-24T14:18:35;8.68;;;5.03;;
75746;SDS011;64363;52.198;21.020;2023-04-24T14:21:01;8.73;;;5.38;;
75746;SDS011;64363;52.198;21.020;2023-04-24T14:23:28;6.15;;;4.93;;
75746;SDS011;64363;52.198;21.020;2023-04-24T14:25:53;7.60;;;5.47;;
75746;SDS011;64363;52.198;21.020;2023-04-24T14:28:19;7.78;;;5.85;;
75746;SDS011;64363;52.198;21.020;2023-04-24T14:30:46;7.32;;;4.97;;
75746;SDS011;64363;52.198;21.020;2023-04-24T14:33:12;7.43;;;5.38;;
75746;SDS011;64363;52.198;21.020;2023-04-24T14:35:38;13.60;;;8.10;;
75746;SDS011;64363;52.198;21.020;2023-04-24T14:38:05;15.93;;;10.13;;
75746;SDS011;64363;52.198;21.020;2023-04-24T14:40:31;11.13;;;5.90;;
75746;SDS011;64363;52.198;21.020;2023-04-24T14:42:58;9.07;;;5.45;;
75746;SDS011;64363;52.198;21.020;2023-04-24T14:45:26;6.68;;;5.40;;
75746;SDS011;64363;52.198;21.020;2023-04-24T14:47:53;10.02;;;6.18;;
75746;SDS011;64363;52.198;21.020;2023-04-24T14:50:19;6.40;;;5.22;;
75746;SDS011;64363;52.198;21.020;2023-04-24T14:52:45;13.50;;;6.05;;
75746;SDS011;64363;52.198;21.020;2023-04-24T14:55:11;9.20;;;5.75;;